D/T METAR WX W/DIR W/SPE G/SPE TEMP DEWP
25/02/20 15:20 EGDR 251520Z 29021G36KT 9999 VCSH FEW013 SCT018CB 06/02 Q1004 TEMPO 3000 +SHRA SCT006 RMK WHT TEMPO YLO1 VCSH WNW (290°) 24.2mph 41.4mph 6°C 2°C
25/02/20 14:50 EGDR 251450Z 28022G39KT 9999 FEW013 SCT018CB 07/01 Q1003 TEMPO 3000 +SHRA SCT006 RMK WHT TEMPO YLO1 W (280°) 25.3mph 44.9mph 7°C 1°C
25/02/20 14:29 EGDR 251429Z 28018G34KT 9999 VCSH FEW013 FEW018CB SCT020 07/03 Q1003 TEMPO 3000 +SHRA SCT006 RMK WHT TEMPO YLO1 VCSH W (280°) 20.7mph 39.1mph 7°C 3°C
25/02/20 13:50 EGDR 251350Z 28023G44KT 9999 SHGS FEW013 SCT016CB 07/01 Q1004 WHT TEMPO 3000 +SHRA SCT006 BKN015CB RMK WHT TEMPO YLO1 SHGS W (280°) 26.5mph 50.6mph 7°C 1°C
25/02/20 13:23 EGDR 251323Z 27017G29KT 9999 FEW012 FEW016CB SCT020 07/04 Q1004 TEMPO 3000 +SHRA SCT006 BKN015CB RMK WHT TEMPO YLO1 W (270°) 19.6mph 33.4mph 7°C 4°C
25/02/20 12:50 EGDR 251250Z 29024G41KT 9999 -SHRA FEW010 SCT020 BKN050 05/03 Q1005 TEMPO 3000 +SHRA SCT006 BKN015CB RMK WHT TEMPO YLO1 -SHRA WNW (290°) 27.6mph 47.2mph 5°C 3°C
25/02/20 12:28 EGDR 251228Z 28022G50KT 3000 -SHRA SCT010 FEW018CB BKN020 07/04 Q1005 NOSIG RMK YLO1 YLO1 -SHRA W (280°) 25.3mph 57.5mph 7°C 4°C
25/02/20 11:50 EGDR 251150Z 27019G33KT 9999 VCSH FEW018CB SCT020 BKN050 06/04 Q1005 RESHRA TEMPO 3000 +SHRA SCT006 BKN015CB RMK WHT TEMPO YLO1 VCSH W (270°) 21.9mph 38.0mph 6°C 4°C
25/02/20 11:30 EGDR 251130Z 27016G28KT 9999 VCSH SCT018CB BKN030 06/04 Q1005 TEMPO 3000 +SHRA SCT006 BKN015CB RMK WHT TEMPO YLO1 VCSH W (270°) 18.4mph 32.2mph 6°C 4°C
25/02/20 11:18 EGDR 251118Z 27021G45KT 2500 -SHGS BKN010 BKN022 05/02 Q1005 NOSIG RMK YLO1 YLO1 -SHGS W (270°) 24.2mph 51.8mph 5°C 2°C
25/02/20 10:22 EGDR 251022Z 27016G27KT 9999 FEW018TCU SCT030 08/03 Q1005 TEMPO 3000 +SHRA SCT006 BKN015CB RMK BLU TEMPO YLO1 W (270°) 18.4mph 31.1mph 8°C 3°C
25/02/20 09:50 EGDR 250950Z 28018G32KT 9999 FEW018 SCT025 08/03 Q1006 TEMPO 3000 +SHRA SCT006 BKN015CB BLU TEMPO YLO1 W (280°) 20.7mph 36.8mph 8°C 3°C
25/02/20 09:15 EGDR 250915Z 28017G29KT 9999 FEW018 SCT025 08/04 Q1006 TEMPO 8000 -SHRA SCT014 RMK BLU TEMPO GRN W (280°) 19.6mph 33.4mph 8°C 4°C
25/02/20 08:50 EGDR 250850Z 28018G33KT 9999 -SHRA FEW012 SCT016 BKN024 07/03 Q1006 TEMPO 8000 -SHRA SCT014 RMK WHT TEMPO GRN -SHRA W (280°) 20.7mph 38.0mph 7°C 3°C
25/02/20 08:21 EGDR 250821Z 27018KT 9999 VCSH FEW012 SCT024 07/04 Q1006 TEMPO 8000 -SHRA SCT014 RMK WHT TEMPO GRN VCSH W (270°) 20.7mph 7°C 4°C
25/02/20 07:50 EGDR 250750Z 27014G25KT 9999 FEW012 SCT024 06/04 Q1006 RESHRA TEMPO 8000 -SHRA SCT014 RMK WHT TEMPO GRN W (270°) 16.1mph 28.8mph 6°C 4°C
25/02/20 07:27 EGDR 250727Z 28016G31KT 9999 -SHRA SCT008 SCT012 SCT018CB 06/04 Q1006 GRN NOSIG RMK GRN GRN -SHRA W (280°) 18.4mph 35.7mph 6°C 4°C
25/02/20 06:50 EGDR 250650Z 27018G31KT 9999 VCSH FEW014 SCT018CB BKN028 07/05 Q1006 RESHRA TEMPO 8000 -SHRA SCT014 RMK WHT TEMPO GRN VCSH W (270°) 20.7mph 35.7mph 7°C 5°C
25/02/20 06:23 EGDR 250623Z 26012G24KT 8000 -SHRA SCT014 FEW018TCU BKN028 07/05 Q1006 NOSIG RMK GRN GRN -SHRA W (260°) 13.8mph 27.6mph 7°C 5°C
25/02/20 05:50 EGDR 250550Z AUTO 27017KT 9999 // BKN032/// 07/05 Q1007 W (270°) 19.6mph 7°C 5°C
25/02/20 04:50 EGDR 250450Z AUTO 27019KT 9999 // SCT034/// SCT090/// 07/04 Q1007 W (270°) 21.9mph 7°C 4°C
25/02/20 03:50 EGDR 250350Z AUTO 26018G33KT 9999 // SCT017/// 07/04 Q1008 W (260°) 20.7mph 38.0mph 7°C 4°C
25/02/20 02:50 EGDR 250250Z AUTO 27017KT 9999 // FEW021/// 07/05 Q1009 W (270°) 19.6mph 7°C 5°C
25/02/20 01:50 EGDR 250150Z AUTO 27017KT 9999 // SCT029/// 07/05 Q1009 W (270°) 19.6mph 7°C 5°C
25/02/20 00:50 EGDR 250050Z AUTO 27016KT 9999 // FEW027/// SCT038/// 07/04 Q1010 W (270°) 18.4mph 7°C 4°C
24/02/20 23:50 EGDR 242350Z AUTO 27015KT 9999 // NCD 07/04 Q1010 W (270°) 17.3mph 7°C 4°C
24/02/20 22:50 EGDR 242250Z AUTO 28014KT 9999 // FEW021/// BKN040/// 07/05 Q1011 W (280°) 16.1mph 7°C 5°C
24/02/20 21:50 EGDR 242150Z AUTO 28014KT 9999 // BKN038/// 07/05 Q1011 W (280°) 16.1mph 7°C 5°C
24/02/20 20:50 EGDR 242050Z 28012KT 9999 FEW022 08/06 Q1011 BLU W (280°) 13.8mph 8°C 6°C
24/02/20 19:50 EGDR 241950Z AUTO 28016KT 9999 // FEW031/// 08/06 Q1011 W (280°) 18.4mph 8°C 6°C
24/02/20 18:50 EGDR 241850Z AUTO 28015KT 9999 // FEW019/// BKN029/// 08/06 Q1011 W (280°) 17.3mph 8°C 6°C
24/02/20 17:50 EGDR 241750Z AUTO 28017KT 9999 // SCT018/// 09/06 Q1011 W (280°) 19.6mph 9°C 6°C
24/02/20 16:50 EGDR 241650Z AUTO 28019KT 9999 // OVC014/// 09/07 Q1010 W (280°) 21.9mph 9°C 7°C
24/02/20 15:50 EGDR 241550Z AUTO 27019KT 9999 // BKN012/// BKN022/// 10/09 Q1010 W (270°) 21.9mph 10°C 9°C
24/02/20 14:50 EGDR 241450Z AUTO 26017G29KT 9999 // SCT002/// BKN007/// BKN015/// 10/10 Q1010 W (260°) 19.6mph 33.4mph 10°C 10°C
24/02/20 14:18 EGDR 241418Z 25012G25KT 2000 -RADZ BKN002 OVC004 10/10 Q1010 TEMPO 1500 -DZ BR SCT001 RMK AMB TEMPO RED -RA -DZ WSW (250°) 13.8mph 28.8mph 10°C 10°C
24/02/20 13:50 EGDR 241350Z 25014G29KT 3000 -DZ BKN002 OVC004 10/10 Q1010 TEMPO 1500 -DZ BR SCT001 RMK AMB TEMPO RED -DZ WSW (250°) 16.1mph 33.4mph 10°C 10°C
24/02/20 13:15 EGDR 241315Z 24018G31KT 1500 -DZ BKN002 OVC004 10/10 Q1010 TEMPO 1500 -DZ BR SCT001 RMK AMB TEMPO RED -DZ WSW (240°) 20.7mph 35.7mph 10°C 10°C
24/02/20 12:50 EGDR 241250Z 24019G32KT 2500 -DZ BKN002 OVC004 10/10 Q1011 NOSIG RMK AMB AMB -DZ WSW (240°) 21.9mph 36.8mph 10°C 10°C
24/02/20 11:50 EGDR 241150Z AUTO /////KT 5000 // OVC002/// 10/10 Q1011 N (0°) 10°C 10°C
24/02/20 10:50 EGDR 241050Z AUTO 23031KT 3600 // OVC002/// 10/10 Q1012 SW (230°) 35.7mph 10°C 10°C
24/02/20 09:50 EGDR 240950Z AUTO 23030KT 1900 // BKN002/// 10/10 Q1012 SW (230°) 34.5mph 10°C 10°C
24/02/20 08:50 EGDR 240850Z AUTO 23029G39KT 3600 // BKN003/// BKN011/// 10/09 Q1013 SW (230°) 33.4mph 44.9mph 10°C 9°C
24/02/20 07:50 EGDR 240750Z AUTO 23028G38KT 9999 // FEW008/// BKN011/// 10/09 Q1014 SW (230°) 32.2mph 43.7mph 10°C 9°C
24/02/20 06:50 EGDR 240650Z AUTO 23029G40KT 9999 // OVC008/// 10/10 Q1014 SW (230°) 33.4mph 46.0mph 10°C 10°C
24/02/20 05:50 EGDR 240550Z AUTO 23026KT 5000 // OVC003/// 10/10 Q1015 SW (230°) 29.9mph 10°C 10°C
24/02/20 04:50 EGDR 240450Z AUTO 23026KT 5000 // BKN003/// SCT011/// 10/10 Q1016 SW (230°) 29.9mph 10°C 10°C
24/02/20 03:50 EGDR 240350Z AUTO 23026KT 4700 // BKN005/// SCT016/// 10/10 Q1017 SW (230°) 29.9mph 10°C 10°C